Aérodrome :
LOGIN :

S'inscrire | Disclaimer

   EN    FR    IT 

 










Légende :    VFR   VFR Marginal   IFR   IFR Intensif   IFR Très Intensif
Visi : 
Plafond : 
>= 8 km
>= 3000ft
5 à 8 km
1000 à 3000 ft
1500m à 5 km
500 à 1000 ft
800 à 1500m
200 à 500 ft
< 800m
< 200 ft
Symboles :   Orages  Brouillard  Fortes neiges  Fortes précipitations  Vent > 20 kt
SIGMETs :   Divers  Orages  Givrage  Turbulence  Onde Orograph.  Cendres Volcan.






- Altitude de l'aérodrome : 424 ft
- Code IATA : QGY


LHPR - Györ Per

DERNIER METAR :
  • 220015Z AUTO 08003KT 1700 BR NCD 12/12 Q1021

METARs EXPIRÉS :
  • 212345Z AUTO 08003KT 4200 BR NCD 11/11 Q1021
  • 212315Z AUTO 07005KT 7000 NCD 11/11 Q1021
  • 212245Z AUTO 08004KT 7000 NCD 12/11 Q1021
  • 212215Z AUTO 07004KT 6000 NCD 11/10 Q1021
  • 212145Z AUTO 09004KT 8000 NCD 12/11 Q1020

TAF AMD TAF LHPR
Valide du 22 à 00h jusqu'au 22 à 03h UTC


220002Z 2200/2203 VRB01KT 2000 BR NSC
TEMPO 2200/2203 0500 FG BKN001



MET'MAP, la Météo Aéronautique d'un coup d'oeil ! - Copyright ORBIFLY Décembre 2007 - Disclaimer

ORBIFLY MET'MAP TEAM :

Programmation & Développement : Alexandra Zaïnal
Conception & Développement : Baudouin d'Aumeries
Co-Programmation & Développement : Marc-Olivier Méhu
Soutien technique & logistique : Manuel Goepfert

Contact : metmap@orbifly.com




SOURCES & CREDITS :

   NOAA